Pays
Station

 

Conditions  météo  pour  Tucuman Aerodrome  -  Argentine    Argentine

  
26 °C
    
 
 

METAR pour Tucuman Aerodrome :

SANT 230400Z 36003KT 6000 NSC 26/18 Q1000

 

Voici le bulletin pour Tucuman Aerodrome - Argentine.
 
Le bulletin a été fait il y a 31 minutes, à 04:00 UTC .
Le vent soufflait à la vitesse de 1.5 mètres par seconde de Nord (360°).
 
La température était de 26 °C, avec un point de rosée à 18 °C.
La température ressentie était de 27 °C.
 
La pression atmosphérique était de 1000 hPa.
L'humidité relative était de 61.4%.
 
La visibilité globale était de 6.0 kilomètres.
 

 
 
 

Pays :   A   B   C   D   E   F   G   H   I   J   K   L   M   N   O   P   Q   R   S   T   U   V   W   Y   Z

 

Partenaires :  Info Météo avec Met'info
Météo Marine avec MeteoMarine.net
Infos Site  |  Infos Légales  |  Crédits  |  Confidentialité
Contactez-nous  |  Ajouter aux favoris
© 2013-2018 METAR - Tous droits réservés